Time;durP1;ratioP1;P1;durP2;ratioP2;P2;SDS_P1;SDS_P2;PMS_P1;PMS_P2;Temp;Humidity;BMP_temperature;BMP_pressure;BME280_temperature;BME280_humidity;BME280_pressure;Samples;Min_cycle;Max_cycle;Signal;HPM_P1;HPM_P2
2022/01/12 00:02:12;;;;;;;10.73;7.00;;;;;;;-3.15;100.00;97851.66;5023174;28;20121;-86
2022/01/12 00:04:39;;;;;;;13.50;8.17;;;;;;;-3.14;100.00;97848.19;5031821;28;20613;-86
2022/01/12 00:07:05;;;;;;;12.47;7.70;;;;;;;-3.21;100.00;97854.34;5048904;28;20090;-86
2022/01/12 00:09:49;;;;;;;15.67;9.40;;;;;;;-3.24;100.00;97854.41;5034229;28;20464;-86
2022/01/12 00:12:34;;;;;;;14.30;8.57;;;;;;;-3.30;100.00;97854.56;5025111;28;21346;-87
2022/01/12 00:15:00;;;;;;;13.13;7.47;;;;;;;-3.31;100.00;97853.72;5026581;28;20555;-87
2022/01/12 00:17:26;;;;;;;13.17;8.50;;;;;;;-3.36;100.00;97856.38;5050976;28;20464;-86
2022/01/12 00:19:55;;;;;;;10.90;7.07;;;;;;;-3.36;100.00;97858.09;5034912;28;20719;-87
2022/01/12 00:22:21;;;;;;;12.70;7.07;;;;;;;-3.40;100.00;97856.47;5019109;28;20480;-87
2022/01/12 00:33:11;;;;;;;12.30;7.17;;;;;;;-3.53;100.00;97867.91;5036605;28;20034;-87
2022/01/12 00:35:41;;;;;;;11.23;6.57;;;;;;;-3.57;100.00;97870.53;5047529;28;20472;-87
2022/01/12 00:38:10;;;;;;;13.63;8.83;;;;;;;-3.57;100.00;97878.25;5014632;28;20471;-87
2022/01/12 00:40:41;;;;;;;12.07;7.80;;;;;;;-3.68;100.00;97882.78;5025972;28;20518;-87
2022/01/12 00:43:07;;;;;;;14.27;9.00;;;;;;;-3.73;100.00;97888.91;5052534;28;20467;-87
2022/01/12 00:46:00;;;;;;;14.80;9.10;;;;;;;-3.80;100.00;97901.88;5037202;28;20562;-88
2022/01/12 00:48:26;;;;;;;16.07;8.83;;;;;;;-3.75;100.00;97911.22;5043628;28;20428;-87
2022/01/12 00:50:52;;;;;;;15.00;9.33;;;;;;;-3.78;100.00;97904.41;5047342;28;20469;-87
2022/01/12 00:53:18;;;;;;;14.77;9.03;;;;;;;-3.83;100.00;97911.34;5043663;28;20109;-87
2022/01/12 00:55:44;;;;;;;13.27;8.23;;;;;;;-3.87;100.00;97900.28;5054411;28;20878;-87
2022/01/12 00:58:13;;;;;;;17.23;10.40;;;;;;;-3.92;100.00;97901.28;5021385;28;20033;-87
2022/01/12 01:00:39;;;;;;;15.10;9.43;;;;;;;-3.93;100.00;97904.72;5021188;28;20029;-87
2022/01/12 01:03:23;;;;;;;15.17;9.43;;;;;;;-3.94;100.00;97905.59;5051018;28;20525;-87
2022/01/12 01:05:49;;;;;;;14.57;8.70;;;;;;;-3.96;100.00;97912.47;5031881;28;20499;-87
2022/01/12 01:08:17;;;;;;;13.50;7.97;;;;;;;-3.96;100.00;97915.88;5017510;28;20546;-87
2022/01/12 01:10:56;;;;;;;12.73;7.97;;;;;;;-3.98;100.00;97906.53;5021960;28;20459;-87
2022/01/12 01:13:28;;;;;;;12.90;8.07;;;;;;;-3.98;100.00;97924.53;5041458;28;20511;-87
2022/01/12 01:26:46;;;;;;;13.17;6.77;;;;;;;-3.95;100.00;97916.75;5040705;28;20467;-87
2022/01/12 01:29:12;;;;;;;14.40;7.47;;;;;;;-4.00;100.00;97926.25;5055567;28;20495;-88
2022/01/12 01:31:40;;;;;;;14.80;8.00;;;;;;;-4.00;100.00;97923.69;5041017;28;20981;-88
2022/01/12 01:34:15;;;;;;;13.33;8.17;;;;;;;-4.00;100.00;97918.56;5048593;28;20463;-88
2022/01/12 01:36:52;;;;;;;14.97;8.07;;;;;;;-4.09;100.00;97923.00;5036563;28;20534;-87
2022/01/12 01:39:22;;;;;;;14.00;8.43;;;;;;;-4.10;100.00;97913.56;5016584;28;20471;-87
2022/01/12 01:42:03;;;;;;;13.07;7.90;;;;;;;-4.12;100.00;97917.06;5043792;28;20505;-87
2022/01/12 01:53:17;;;;;;;14.57;8.70;;;;;;;-4.15;100.00;97915.41;5020319;28;20469;-87
2022/01/12 01:55:40;;;;;;;16.93;9.17;;;;;;;-4.24;100.00;97910.41;5015392;28;20945;-87
2022/01/12 01:58:06;;;;;;;20.40;11.17;;;;;;;-4.24;100.00;97920.69;5039009;28;20467;-87
2022/01/12 02:00:35;;;;;;;19.80;11.43;;;;;;;-4.29;100.00;97913.09;5039367;28;20475;-87
2022/01/12 02:03:18;;;;;;;16.53;10.47;;;;;;;-4.32;100.00;97910.56;5014932;28;20533;-87
2022/01/12 02:05:48;;;;;;;15.00;9.73;;;;;;;-4.30;100.00;97902.81;5022016;28;20471;-87
2022/01/12 02:08:14;;;;;;;15.80;9.83;;;;;;;-4.30;100.00;97905.38;5032188;28;20448;-87
2022/01/12 02:11:09;;;;;;;16.00;9.97;;;;;;;-4.34;100.00;97902.03;5030353;28;20484;-87
2022/01/12 02:13:35;;;;;;;16.73;10.33;;;;;;;-4.38;100.00;97897.81;5015037;28;20620;-87
2022/01/12 02:16:01;;;;;;;23.67;10.53;;;;;;;-4.35;100.00;97902.06;5036010;28;20029;-87
2022/01/12 02:18:52;;;;;;;14.50;9.50;;;;;;;-4.39;100.00;97902.97;5032568;28;21011;-87
2022/01/12 02:40:54;;;;;;;14.33;8.27;;;;;;;-4.55;100.00;97910.97;5020021;28;20456;-86
2022/01/12 02:43:43;;;;;;;16.20;9.03;;;;;;;-4.58;100.00;97930.69;5043199;28;20495;-87
2022/01/12 02:54:25;;;;;;;18.00;10.63;;;;;;;-4.71;100.00;97917.22;5035027;28;20592;-87
2022/01/12 02:56:59;;;;;;;14.37;9.20;;;;;;;-4.70;100.00;97926.59;5055497;28;20446;-87
2022/01/12 02:59:26;;;;;;;17.20;9.47;;;;;;;-4.73;100.00;97931.78;5038255;28;20463;-87
2022/01/12 03:07:58;;;;;;;15.23;9.20;;;;;;;-4.82;100.00;97931.94;5042858;28;20471;-87
2022/01/12 03:10:54;;;;;;;18.47;10.53;;;;;;;-4.80;100.00;97925.88;5040105;28;20466;-87
2022/01/12 03:13:21;;;;;;;21.80;10.07;;;;;;;-4.84;100.00;97921.69;4997117;28;20491;-87
2022/01/12 03:15:48;;;;;;;17.13;9.60;;;;;;;-4.87;100.00;97918.31;5024617;28;21024;-87
2022/01/12 03:18:16;;;;;;;14.40;8.97;;;;;;;-4.85;100.00;97916.59;5027735;28;20452;-87
2022/01/12 03:20:44;;;;;;;17.47;11.40;;;;;;;-4.86;100.00;97920.00;5034217;28;20456;-87
2022/01/12 03:23:11;;;;;;;22.20;11.33;;;;;;;-4.84;100.00;97925.97;5026778;28;21037;-87
2022/01/12 03:25:37;;;;;;;17.90;10.43;;;;;;;-4.82;100.00;97929.38;5031826;28;20483;-87
2022/01/12 03:28:06;;;;;;;19.07;11.00;;;;;;;-4.74;100.00;97924.97;5022606;28;21130;-88
2022/01/12 03:30:40;;;;;;;17.60;10.57;;;;;;;-4.78;100.00;97921.59;5023941;28;20471;-87
2022/01/12 03:33:19;;;;;;;17.57;11.33;;;;;;;-4.76;100.00;97931.84;5044166;28;20467;-87
2022/01/12 03:35:51;;;;;;;19.80;10.60;;;;;;;-4.75;100.00;97934.38;5034015;28;20479;-87
2022/01/12 03:38:20;;;;;;;16.77;10.27;;;;;;;-4.71;100.00;97919.78;5036790;28;20542;-87
2022/01/12 03:40:50;;;;;;;18.60;10.87;;;;;;;-4.75;100.00;97918.97;5048536;28;20467;-87
2022/01/12 03:43:17;;;;;;;15.93;10.20;;;;;;;-4.72;100.00;97923.22;5052110;28;20906;-87
2022/01/12 03:45:47;;;;;;;18.23;10.47;;;;;;;-4.70;100.00;97926.59;5035547;28;20459;-87
2022/01/12 03:48:12;;;;;;;19.03;11.63;;;;;;;-4.70;100.00;97931.72;5052094;28;20471;-87
2022/01/12 03:50:39;;;;;;;17.43;11.43;;;;;;;-4.66;100.00;97938.53;5051643;28;20568;-87
2022/01/12 03:53:06;;;;;;;17.97;11.63;;;;;;;-4.68;100.00;97942.84;5051677;28;20447;-87
2022/01/12 03:55:32;;;;;;;19.97;12.00;;;;;;;-4.65;100.00;97935.09;5043209;28;20810;-87
2022/01/12 03:57:57;;;;;;;20.07;11.40;;;;;;;-4.66;100.00;97951.38;5033730;28;20060;-87
2022/01/12 04:00:23;;;;;;;19.87;11.60;;;;;;;-4.67;100.00;97956.50;5043283;28;20570;-86
2022/01/12 04:02:49;;;;;;;18.47;11.97;;;;;;;-4.71;100.00;97960.84;5042800;28;20082;-87
2022/01/12 04:05:29;;;;;;;17.53;11.33;;;;;;;-4.67;100.00;97966.78;5044361;28;20026;-87
2022/01/12 04:10:40;;;;;;;18.70;10.70;;;;;;;-4.69;100.00;97963.38;5032369;28;20834;-87
2022/01/12 04:13:08;;;;;;;17.80;10.67;;;;;;;-4.67;100.00;97964.22;5018007;28;20499;-87
2022/01/12 04:15:34;;;;;;;19.63;12.07;;;;;;;-4.65;100.00;97965.88;5033526;28;20479;-87
2022/01/12 04:18:00;;;;;;;27.53;15.27;;;;;;;-4.65;100.00;97965.03;5047405;28;20467;-87
2022/01/12 04:20:26;;;;;;;21.13;13.00;;;;;;;-4.60;100.00;97966.66;5028170;28;20818;-87
2022/01/12 04:25:36;;;;;;;91.27;36.37;;;;;;;-4.54;100.00;97964.00;5006394;28;20030;-87
2022/01/12 04:28:04;;;;;;;98.07;39.93;;;;;;;-4.46;100.00;97965.59;5020539;28;20464;-87
2022/01/12 04:30:30;;;;;;;46.40;23.43;;;;;;;-4.43;100.00;97957.84;5001941;28;20056;-87
2022/01/12 04:32:55;;;;;;;25.97;15.03;;;;;;;-4.39;100.00;97959.47;5042319;28;20494;-87
2022/01/12 04:35:25;;;;;;;21.93;11.83;;;;;;;-4.34;100.00;97957.69;5016552;28;20035;-87
2022/01/12 04:37:51;;;;;;;20.00;11.80;;;;;;;-4.33;100.00;97951.66;5017763;28;20035;-87
2022/01/12 04:40:17;;;;;;;22.77;14.20;;;;;;;-4.36;100.00;97951.72;5035019;28;20463;-87
2022/01/12 04:42:43;;;;;;;21.47;12.63;;;;;;;-4.31;100.00;97955.06;5036359;28;20487;-87
2022/01/12 04:45:32;;;;;;;22.70;12.33;;;;;;;-4.29;100.00;97956.75;5042446;28;20029;-87
2022/01/12 04:48:08;;;;;;;24.20;14.50;;;;;;;-4.19;100.00;97960.00;5034980;28;20464;-87
2022/01/12 04:50:37;;;;;;;19.67;13.10;;;;;;;-4.14;100.00;97967.63;5042929;28;20463;-87
2022/01/12 04:53:04;;;;;;;18.07;12.37;;;;;;;-4.06;100.00;97961.50;5051441;28;20463;-87
2022/01/12 04:55:30;;;;;;;20.73;13.87;;;;;;;-4.05;100.00;97963.19;5047745;28;20459;-87
2022/01/12 04:57:57;;;;;;;22.60;13.53;;;;;;;-4.01;100.00;97968.25;5019789;28;20448;-87
2022/01/12 05:00:26;;;;;;;22.37;12.37;;;;;;;-3.97;100.00;97973.31;5043586;28;21075;-87
2022/01/12 05:13:40;;;;;;;17.43;11.37;;;;;;;-3.82;100.00;97992.75;5023693;28;20928;-86
2022/01/12 05:16:07;;;;;;;20.37;12.70;;;;;;;-3.83;100.00;97989.31;5022032;28;20456;-87
2022/01/12 05:22:20;;;;;;;16.63;10.60;;;;;;;-3.83;100.00;98007.31;5037373;28;20506;-87
2022/01/12 05:24:47;;;;;;;18.33;11.53;;;;;;;-3.76;100.00;98004.63;5036980;28;20553;-87
2022/01/12 05:27:14;;;;;;;19.10;11.70;;;;;;;-3.80;100.00;98009.81;5016253;28;20571;-87
2022/01/12 05:29:56;;;;;;;18.90;11.50;;;;;;;-3.69;100.00;98012.22;5040026;28;20467;-87
2022/01/12 05:32:24;;;;;;;18.27;12.40;;;;;;;-3.74;100.00;98008.03;5040655;28;20578;-87
2022/01/12 05:34:58;;;;;;;17.90;11.60;;;;;;;-3.76;100.00;98013.19;5007870;28;20500;-87
2022/01/12 05:37:25;;;;;;;19.67;12.05;;;;;;;-3.81;100.00;98013.28;5036136;28;20507;-86
2022/01/12 05:40:01;;;;;;;27.90;15.57;;;;;;;-3.76;100.00;98004.63;5021043;28;20032;-87
2022/01/12 05:42:31;;;;;;;21.80;14.37;;;;;;;-3.77;100.00;98020.94;5029694;28;20494;-88
2022/01/12 05:44:58;;;;;;;19.53;13.80;;;;;;;-3.80;100.00;98022.69;5032205;28;21015;-88
2022/01/12 05:50:28;;;;;;;16.90;12.00;;;;;;;-3.80;100.00;98007.25;5001144;28;20458;-84
2022/01/12 05:52:55;;;;;;;17.97;11.53;;;;;;;-3.79;100.00;98013.25;5039888;28;20474;-84
2022/01/12 05:55:21;;;;;;;18.23;12.03;;;;;;;-3.84;100.00;98004.78;5042342;28;20452;-84
2022/01/12 05:57:56;;;;;;;19.60;12.33;;;;;;;-3.83;100.00;98003.91;5040141;28;21005;-83
2022/01/12 06:00:33;;;;;;;18.97;12.43;;;;;;;-3.83;100.00;97999.59;5038175;28;20487;-83
2022/01/12 06:03:00;;;;;;;18.90;12.30;;;;;;;-3.86;100.00;98009.09;5042367;28;20519;-83
2022/01/12 06:05:48;;;;;;;19.97;13.43;;;;;;;-3.89;100.00;98024.56;5024931;28;20475;-83
2022/01/12 06:08:14;;;;;;;19.43;12.87;;;;;;;-3.89;100.00;98025.44;5018275;28;20029;-83
2022/01/12 06:10:40;;;;;;;20.30;12.53;;;;;;;-3.91;100.00;98022.03;5028466;28;20542;-83
2022/01/12 06:13:41;;;;;;;18.07;12.27;;;;;;;-3.92;100.00;98029.78;5052015;28;20033;-83
2022/01/12 06:16:06;;;;;;;26.27;12.57;;;;;;;-3.96;100.00;98030.69;5031378;28;20564;-83
2022/01/12 06:18:40;;;;;;;18.53;12.57;;;;;;;-3.89;100.00;98020.28;5020345;28;20448;-83
2022/01/12 06:21:06;;;;;;;18.83;12.00;;;;;;;-3.88;100.00;98031.41;5017593;28;20503;-83
2022/01/12 06:23:52;;;;;;;18.77;12.07;;;;;;;-3.98;100.00;98040.16;5029914;28;20525;-83
2022/01/12 06:26:24;;;;;;;19.43;12.57;;;;;;;-4.00;100.00;98049.59;5031827;28;20455;-83
2022/01/12 06:31:52;;;;;;;18.77;12.17;;;;;;;-3.95;100.00;98055.53;4954197;28;20479;-83
2022/01/12 06:34:23;;;;;;;19.07;13.20;;;;;;;-3.92;100.00;98063.19;5019465;28;20497;-84
2022/01/12 06:36:49;;;;;;;18.30;11.90;;;;;;;-3.90;100.00;98074.28;4991406;28;20488;-84
2022/01/12 06:39:17;;;;;;;18.13;11.90;;;;;;;-3.94;100.00;98070.06;5030671;28;20483;-84
2022/01/12 06:41:44;;;;;;;19.87;12.30;;;;;;;-3.94;100.00;98070.06;5008986;28;20471;-85
2022/01/12 06:44:15;;;;;;;22.17;13.30;;;;;;;-3.91;100.00;98075.16;5018883;28;20471;-84
2022/01/12 06:46:42;;;;;;;19.87;13.27;;;;;;;-3.98;100.00;98071.00;5012615;28;21017;-84
2022/01/12 06:49:11;;;;;;;20.70;13.30;;;;;;;-3.95;100.00;98060.66;5038015;28;20482;-83
2022/01/12 06:51:38;;;;;;;18.10;11.93;;;;;;;-3.98;100.00;98068.44;5018118;28;20467;-84
2022/01/12 06:54:21;;;;;;;22.03;12.40;;;;;;;-4.01;100.00;98068.47;5034118;28;21167;-83
2022/01/12 06:56:56;;;;;;;19.80;12.97;;;;;;;-4.07;100.00;98066.84;4994112;28;20460;-84
2022/01/12 06:59:22;;;;;;;21.23;12.87;;;;;;;-4.02;100.00;98072.78;5026986;28;20486;-83
2022/01/12 07:01:52;;;;;;;17.33;12.07;;;;;;;-4.05;100.00;98071.09;5035629;28;20455;-83
2022/01/12 07:04:26;;;;;;;18.63;12.37;;;;;;;-4.08;100.00;98066.00;4998966;28;20479;-83
2022/01/12 07:06:54;;;;;;;19.70;13.87;;;;;;;-3.99;100.00;98061.56;5036176;28;20483;-83
2022/01/12 07:09:22;;;;;;;23.00;13.87;;;;;;;-4.09;100.00;98058.31;5046887;28;20470;-83
2022/01/12 07:11:56;;;;;;;21.30;12.80;;;;;;;-4.06;100.00;98071.97;5023274;28;20490;-83
2022/01/12 07:14:27;;;;;;;21.13;13.40;;;;;;;-4.11;100.00;98068.63;5014907;28;20468;-83
2022/01/12 07:16:54;;;;;;;20.07;13.23;;;;;;;-4.12;100.00;98072.06;5034669;28;20484;-83
2022/01/12 07:19:21;;;;;;;23.80;13.13;;;;;;;-4.12;100.00;98068.66;5037003;28;20447;-83
2022/01/12 07:25:35;;;;;;;20.60;13.10;;;;;;;-4.13;100.00;98078.06;5031770;28;20040;-83
2022/01/12 07:28:03;;;;;;;20.17;12.67;;;;;;;-4.12;100.00;98072.06;5030962;28;20457;-83
2022/01/12 07:30:30;;;;;;;19.47;12.53;;;;;;;-4.17;100.00;98068.72;5014621;28;21024;-83
2022/01/12 07:32:56;;;;;;;19.77;11.83;;;;;;;-4.12;100.00;98084.06;5025631;28;20471;-83
2022/01/12 07:35:21;;;;;;;17.57;11.57;;;;;;;-4.19;100.00;98088.47;5028667;28;20522;-83
2022/01/12 07:38:03;;;;;;;19.23;12.50;;;;;;;-4.11;100.00;98086.59;5009421;28;20053;-83
2022/01/12 07:40:39;;;;;;;24.27;12.37;;;;;;;-4.14;100.00;98084.06;5025437;28;20033;-83
2022/01/12 07:43:08;;;;;;;22.57;12.47;;;;;;;-4.10;100.00;98090.84;5025778;28;20487;-83
2022/01/12 07:45:36;;;;;;;18.07;11.90;;;;;;;-4.12;100.00;98095.19;5036253;28;20466;-84
2022/01/12 07:48:02;;;;;;;22.20;12.33;;;;;;;-4.10;100.00;98092.59;5039246;28;20463;-83
2022/01/12 07:50:30;;;;;;;20.47;12.77;;;;;;;-4.05;100.00;98099.34;5004226;28;20459;-83
2022/01/12 07:52:56;;;;;;;20.87;13.07;;;;;;;-4.03;100.00;98099.31;5022893;28;20812;-83
2022/01/12 07:55:23;;;;;;;20.03;13.10;;;;;;;-4.06;100.00;98095.09;5016463;28;20464;-83
2022/01/12 07:57:50;;;;;;;22.33;13.40;;;;;;;-3.98;100.00;98107.81;5028354;28;20037;-83
2022/01/12 08:00:18;;;;;;;19.43;12.67;;;;;;;-3.98;100.00;98117.25;5034449;28;20969;-83
2022/01/12 08:02:44;;;;;;;20.10;12.03;;;;;;;-3.87;100.00;98115.34;5027672;28;20514;-83
2022/01/12 08:05:11;;;;;;;20.03;13.10;;;;;;;-3.92;100.00;98117.16;5014509;28;20456;-83
2022/01/12 08:07:38;;;;;;;21.73;13.83;;;;;;;-3.86;100.00;98124.75;5033943;28;20025;-83
2022/01/12 08:10:07;;;;;;;20.63;13.50;;;;;;;-3.94;100.00;98130.03;5014222;28;21051;-83
2022/01/12 08:12:33;;;;;;;20.20;12.37;;;;;;;-4.08;100.00;98144.81;5031031;28;20582;-83
2022/01/12 08:15:00;;;;;;;19.30;12.03;;;;;;;-3.93;100.00;98133.44;5015880;28;20464;-83
2022/01/12 08:17:27;;;;;;;25.47;14.63;;;;;;;-3.80;100.00;98143.50;5021856;28;20116;-83
2022/01/12 08:20:28;;;;;;;28.97;15.00;;;;;;;-3.90;100.00;98135.97;5022511;28;20484;-83
2022/01/12 08:22:57;;;;;;;23.27;14.23;;;;;;;-3.92;100.00;98148.84;5028474;28;20480;-83
2022/01/12 08:25:25;;;;;;;21.60;12.73;;;;;;;-3.94;100.00;98149.75;5032484;28;20471;-84
2022/01/12 08:27:58;;;;;;;20.93;12.50;;;;;;;-3.83;100.00;98156.41;5045116;28;20459;-83
2022/01/12 08:30:29;;;;;;;20.38;11.52;;;;;;;-3.76;100.00;98166.59;5015617;28;21017;-83
2022/01/12 08:32:55;;;;;;;18.20;12.13;;;;;;;-3.75;100.00;98160.59;5034861;28;20059;-83
2022/01/12 08:35:25;;;;;;;21.47;13.77;;;;;;;-3.72;100.00;98166.53;5042411;28;20460;-84
2022/01/12 08:37:54;;;;;;;20.37;12.73;;;;;;;-3.83;100.00;98153.81;5038508;28;20467;-83
2022/01/12 08:40:21;;;;;;;18.83;12.37;;;;;;;-3.68;100.00;98157.06;5016576;28;20460;-83
2022/01/12 08:43:00;;;;;;;18.00;12.20;;;;;;;-3.77;100.00;98167.47;5037651;28;20444;-83
2022/01/12 08:45:26;;;;;;;17.83;11.97;;;;;;;-3.94;100.00;98160.88;5014524;28;21096;-83
2022/01/12 08:47:51;;;;;;;18.50;12.03;;;;;;;-3.77;100.00;98163.19;5038619;28;20558;-84
2022/01/12 08:50:20;;;;;;;19.20;11.90;;;;;;;-3.60;100.00;98166.31;5019523;28;20031;-83
2022/01/12 08:52:47;;;;;;;18.90;12.23;;;;;;;-3.65;100.00;98175.84;5037979;28;20033;-83
2022/01/12 08:55:16;;;;;;;17.03;11.53;;;;;;;-3.69;100.00;98163.91;5014887;28;20464;-83
2022/01/12 08:57:42;;;;;;;18.33;11.90;;;;;;;-3.57;100.00;98175.72;5031260;28;20452;-83
2022/01/12 09:00:09;;;;;;;17.97;11.27;;;;;;;-3.48;100.00;98185.00;5030676;28;20523;-83
2022/01/12 09:02:35;;;;;;;18.20;11.30;;;;;;;-3.52;100.00;98184.22;5027017;28;20021;-84
2022/01/12 09:05:02;;;;;;;16.23;10.87;;;;;;;-3.54;100.00;98185.09;5034391;28;20463;-84
2022/01/12 09:07:28;;;;;;;17.47;11.73;;;;;;;-3.50;100.00;98184.19;5040055;28;20033;-83
2022/01/12 09:09:53;;;;;;;20.90;12.43;;;;;;;-3.66;100.00;98181.00;5011434;28;20471;-84
2022/01/12 09:12:20;;;;;;;18.47;11.90;;;;;;;-3.62;100.00;98178.38;5013686;28;20688;-84
2022/01/12 09:14:48;;;;;;;20.23;13.33;;;;;;;-3.69;100.00;98187.06;5014916;28;20467;-83
2022/01/12 09:17:16;;;;;;;22.23;13.63;;;;;;;-3.66;100.00;98175.84;5007992;28;20476;-83
2022/01/12 09:19:42;;;;;;;20.47;13.80;;;;;;;-3.69;100.00;98174.19;5028247;28;20464;-83
2022/01/12 09:22:08;;;;;;;20.47;13.13;;;;;;;-3.68;100.00;98173.31;5028307;28;20439;-84
2022/01/12 09:24:34;;;;;;;19.17;12.13;;;;;;;-3.41;100.00;98177.16;5032125;28;20514;-84
2022/01/12 09:27:00;;;;;;;21.30;13.20;;;;;;;-3.53;100.00;98176.50;5027167;28;20424;-83
2022/01/12 09:29:28;;;;;;;18.50;11.83;;;;;;;-3.63;100.00;98194.66;5011209;28;20041;-83
2022/01/12 09:32:01;;;;;;;18.10;11.03;;;;;;;-3.64;100.00;98195.53;5027042;28;20838;-83
2022/01/12 09:34:27;;;;;;;19.77;12.30;;;;;;;-3.44;100.00;98207.22;5024442;28;20473;-83
2022/01/12 09:36:53;;;;;;;18.30;11.63;;;;;;;-3.53;100.00;98197.09;5035790;28;20051;-83
2022/01/12 09:39:19;;;;;;;21.43;12.03;;;;;;;-3.45;100.00;98196.09;5014028;28;20037;-83
2022/01/12 09:41:45;;;;;;;18.43;11.90;;;;;;;-3.37;100.00;98199.38;5036160;28;20029;-83
2022/01/12 09:44:12;;;;;;;16.87;11.50;;;;;;;-3.24;100.00;98196.59;5036158;28;20460;-83
2022/01/12 09:46:38;;;;;;;19.33;10.73;;;;;;;-3.19;100.00;98189.63;5043262;28;20648;-84
2022/01/12 09:49:40;;;;;;;16.80;10.00;;;;;;;-2.88;100.00;98185.66;5042608;28;20484;-83
2022/01/12 09:52:06;;;;;;;17.37;10.60;;;;;;;-3.01;100.00;98175.63;5039463;28;20041;-83
2022/01/12 09:54:32;;;;;;;18.83;12.10;;;;;;;-2.74;100.00;98180.22;5027331;28;20440;-83
2022/01/12 09:56:59;;;;;;;18.97;10.20;;;;;;;-2.73;100.00;98176.78;5019655;28;20057;-83
2022/01/12 09:59:26;;;;;;;16.30;10.37;;;;;;;-2.83;100.00;98193.28;5032396;28;20038;-83
2022/01/12 10:01:52;;;;;;;17.43;10.83;;;;;;;-3.02;100.00;98189.34;5022997;28;20460;-83
2022/01/12 10:04:28;;;;;;;15.30;10.43;;;;;;;-3.02;100.00;98187.59;5039608;28;20432;-83
2022/01/12 10:07:03;;;;;;;15.87;10.67;;;;;;;-2.62;100.00;98198.03;5037159;28;20499;-83
2022/01/12 10:09:40;;;;;;;16.33;11.03;;;;;;;-2.50;100.00;98196.94;5030933;28;20482;-83
2022/01/12 10:12:21;;;;;;;14.10;9.33;;;;;;;-2.26;100.00;98195.56;5014202;28;20515;-83
2022/01/12 10:14:59;;;;;;;13.17;8.83;;;;;;;-2.41;100.00;98213.94;5035570;28;20471;-83
2022/01/12 10:17:35;;;;;;;13.53;8.73;;;;;;;-2.22;100.00;98210.06;5017735;28;20468;-83
2022/01/12 10:20:18;;;;;;;13.77;8.40;;;;;;;-2.06;100.00;98215.75;5050790;28;20466;-83
2022/01/12 10:23:09;;;;;;;14.10;8.18;;;;;;;-2.07;100.00;98213.22;5015911;28;20460;-84
2022/01/12 10:25:39;;;;;;;13.30;8.17;;;;;;;-2.16;100.00;98220.25;5030498;28;20488;-83
2022/01/12 10:28:22;;;;;;;12.73;8.40;;;;;;;-1.97;100.00;98209.56;5019275;28;21029;-83
2022/01/12 10:31:01;;;;;;;12.43;8.33;;;;;;;-1.86;100.00;98212.75;5012530;28;20458;-83
2022/01/12 10:33:35;;;;;;;16.40;9.30;;;;;;;-1.96;100.00;98221.56;5031814;28;20521;-83
2022/01/12 10:36:07;;;;;;;14.87;9.30;;;;;;;-1.66;100.00;98220.88;5024158;28;21283;-83
2022/01/12 10:38:33;;;;;;;16.40;10.10;;;;;;;-1.62;100.00;98220.81;5039425;28;20472;-83
2022/01/12 10:41:46;;;;;;;13.93;9.13;;;;;;;-1.35;100.00;98215.00;5037515;28;20493;-83
2022/01/12 10:44:22;;;;;;;13.77;8.37;;;;;;;-1.66;100.00;98228.63;5032459;28;20479;-83
2022/01/12 10:47:19;;;;;;;14.17;9.03;;;;;;;-2.11;100.00;98222.75;5028776;28;20547;-83
2022/01/12 10:50:18;;;;;;;15.23;9.30;;;;;;;-1.86;100.00;98217.91;5003629;28;20508;-83
2022/01/12 10:52:51;;;;;;;14.70;9.50;;;;;;;-1.99;100.00;98221.63;5034338;28;20992;-83
2022/01/12 10:55:17;;;;;;;15.50;9.93;;;;;;;-1.91;100.00;98225.75;5014132;28;20456;-83
2022/01/12 10:57:44;;;;;;;15.70;9.30;;;;;;;-2.06;100.00;98230.38;5031282;28;20537;-83
2022/01/12 11:00:19;;;;;;;14.10;9.40;;;;;;;-1.91;100.00;98240.38;5030432;28;20428;-83
2022/01/12 11:02:57;;;;;;;15.00;9.67;;;;;;;-1.86;100.00;98251.44;5029965;28;20576;-83
2022/01/12 11:05:31;;;;;;;14.97;9.23;;;;;;;-2.16;100.00;98256.34;5031368;28;20483;-83
2022/01/12 11:07:57;;;;;;;;;;;;;;;-1.99;100.00;98245.69;5044418;28;20472;-83
2022/01/12 11:10:23;;;;;;;15.37;9.87;;;;;;;-1.95;100.00;98243.88;5038620;28;19978;-83
2022/01/12 11:12:50;;;;;;;16.70;11.33;;;;;;;-1.96;100.00;98242.19;5030201;28;20040;-83
2022/01/12 11:15:18;;;;;;;21.00;12.83;;;;;;;-2.09;100.00;98246.75;5040960;28;20519;-85
2022/01/12 11:17:56;;;;;;;17.03;11.60;;;;;;;-2.32;100.00;98247.22;5038836;28;20472;-85
2022/01/12 11:20:33;;;;;;;17.77;11.57;;;;;;;-2.44;100.00;98250.06;5025497;28;20491;-85
2022/01/12 11:23:13;;;;;;;17.30;11.47;;;;;;;-2.14;100.00;98241.72;5026026;28;20483;-85
2022/01/12 11:25:49;;;;;;;16.20;10.97;;;;;;;-2.31;100.00;98241.22;5032125;28;20575;-85
2022/01/12 11:28:20;;;;;;;15.43;10.83;;;;;;;-2.34;100.00;98236.13;5031470;28;20885;-85
2022/01/12 11:31:09;;;;;;;15.80;10.03;;;;;;;-2.35;100.00;98243.88;5024487;28;20464;-85
2022/01/12 11:34:31;;;;;;;16.80;9.37;;;;;;;-2.61;100.00;98238.34;5033930;28;20549;-85
2022/01/12 11:36:57;;;;;;;16.03;9.83;;;;;;;-2.20;100.00;98244.41;5034449;28;20471;-85
2022/01/12 11:39:23;;;;;;;14.27;8.87;;;;;;;-2.47;100.00;98242.41;5026240;28;20448;-85
2022/01/12 11:41:49;;;;;;;15.37;10.50;;;;;;;-2.28;100.00;98245.44;5013951;28;20028;-84
2022/01/12 11:44:22;;;;;;;14.77;9.83;;;;;;;-2.36;100.00;98245.59;5016964;28;20258;-85
2022/01/12 11:46:53;;;;;;;13.95;8.93;;;;;;;-2.33;100.00;98232.66;5024705;28;20472;-85
2022/01/12 11:49:46;;;;;;;15.37;10.30;;;;;;;-2.56;100.00;98219.38;5015594;28;20061;-85
2022/01/12 11:52:18;;;;;;;15.63;10.00;;;;;;;-2.63;100.00;98213.50;5035433;28;20471;-85
2022/01/12 11:54:47;;;;;;;17.00;11.23;;;;;;;-2.75;100.00;98206.00;5033124;28;20523;-86
2022/01/12 11:57:18;;;;;;;17.07;9.93;;;;;;;-2.38;100.00;98195.84;5016380;28;20449;-85
2022/01/12 12:00:00;;;;;;;17.47;10.87;;;;;;;-2.68;100.00;98193.00;5040701;28;20455;-85
2022/01/12 12:02:37;;;;;;;17.40;10.40;;;;;;;-2.51;100.00;98184.94;5056795;28;20452;-85
2022/01/12 12:05:16;;;;;;;17.47;11.07;;;;;;;-2.48;100.00;98182.31;5036239;28;20482;-85
2022/01/12 12:07:47;;;;;;;17.83;11.00;;;;;;;-2.50;100.00;98163.44;5023287;28;20464;-86
2022/01/12 12:10:22;;;;;;;19.23;10.80;;;;;;;-2.32;100.00;98146.72;5024421;28;20688;-86
2022/01/12 12:12:55;;;;;;;17.27;11.07;;;;;;;-2.25;100.00;98131.97;5035457;28;20471;-85
2022/01/12 12:15:23;;;;;;;17.45;11.95;;;;;;;-2.13;100.00;98132.56;5036825;28;20658;-85
2022/01/12 12:17:51;;;;;;;15.27;9.90;;;;;;;-2.15;100.00;98129.19;5033332;28;20479;-86
2022/01/12 12:20:20;;;;;;;15.00;10.67;;;;;;;-2.19;100.00;98130.13;5012399;28;20471;-86
2022/01/12 12:22:48;;;;;;;15.03;10.03;;;;;;;-2.07;100.00;98130.75;5013580;28;20480;-85
2022/01/12 12:25:18;;;;;;;16.13;9.97;;;;;;;-1.67;100.00;98121.16;5029966;28;20471;-85
2022/01/12 12:27:51;;;;;;;16.83;11.07;;;;;;;-1.22;99.61;98118.28;5008274;28;20483;-85
2022/01/12 12:30:18;;;;;;;16.57;10.77;;;;;;;-1.15;96.38;98124.13;5008496;28;21028;-86
2022/01/12 12:32:53;;;;;;;14.47;9.13;;;;;;;-0.79;93.91;98113.72;4996482;28;20918;-86
2022/01/12 12:35:32;;;;;;;13.13;8.77;;;;;;;0.05;89.51;98102.59;5013509;28;20791;-86
2022/01/12 12:38:07;;;;;;;13.73;8.60;;;;;;;-0.01;85.56;98098.44;5030684;28;21090;-85
2022/01/12 12:40:36;;;;;;;16.77;9.63;;;;;;;0.08;90.21;98086.97;5036697;28;20475;-85
2022/01/12 12:43:35;;;;;;;13.43;8.57;;;;;;;0.41;85.33;98079.84;5021724;28;20440;-86
2022/01/12 12:46:09;;;;;;;12.47;8.20;;;;;;;-0.44;89.05;98073.06;5035508;28;20448;-83
2022/01/12 12:48:39;;;;;;;13.63;9.17;;;;;;;-0.22;87.65;98086.19;5036828;28;20805;-86
2022/01/12 12:51:16;;;;;;;13.33;9.00;;;;;;;-0.07;89.73;98085.69;5036570;28;20463;-87
2022/01/12 12:53:48;;;;;;;15.03;8.87;;;;;;;0.64;83.04;98084.25;5039101;28;20495;-86
2022/01/12 12:56:31;;;;;;;13.65;9.13;;;;;;;0.75;84.92;98087.31;5028197;28;20598;-86
2022/01/12 12:58:59;;;;;;;13.47;9.00;;;;;;;0.33;86.08;98089.59;5036789;28;20086;-86
2022/01/12 13:01:36;;;;;;;13.90;8.57;;;;;;;0.58;85.48;98100.00;5015309;28;20489;-86
2022/01/12 13:04:10;;;;;;;15.60;9.57;;;;;;;0.68;85.52;98102.22;5039114;28;20472;-86